Flight Track Log - Related Links

Times and Time Zones

All times are in EDT time to prevent confusion due to time zone crossing. See the CES5879 flight status page for this flight to view local times or setup timezone preferences in your user account.

Time Position Orientation Groundspeed Altitude Reporting Facility
EDT Latitude Longitude Course Direction KTS MPH feet Rate Location/Type
Wed 06:36:28 PM 40.2490 116.4370 326° Northwest 276 318 6,800  Level FlightAware ADS-B
Wed 06:36:38 PM 40.2610 116.4270 328° Northwest 277 319 7,300 2,571 Climbing FlightAware ADS-B
Wed 06:37:03 PM 40.2830 116.3980 315° West 281 323 8,300 2,400 Climbing FlightAware ADS-B
Wed 06:37:18 PM 40.2890 116.3740 288° West 280 322 8,900 2,854 Climbing FlightAware ADS-B
Wed 06:38:46 PM 40.2810 116.2290 266° West 294 338 13,200 3,136 Climbing FlightAware ADS-B
Wed 06:39:30 PM 40.2580 116.1480 250° West 302 348 15,800 3,500 Climbing FlightAware ADS-B
Wed 06:40:10 PM 40.2390 116.0770 251° West 307 353 18,100 2,110 Climbing FlightAware ADS-B
Wed 06:41:01 PM 40.2190 116.0060 250° West 310 357 19,000 535 Climbing FlightAware ADS-B
Wed 06:41:51 PM 40.1980 115.9310 250° West 310 357 19,000  Level FlightAware ADS-B
Wed 06:42:29 PM 40.1820 115.8740 250° West 310 357 19,000  Level FlightAware ADS-B
Wed 06:43:05 PM 40.1670 115.8200 250° West 310 357 19,000  Level FlightAware ADS-B
Wed 06:43:53 PM 40.1470 115.7480 250° West 310 357 19,000  Level FlightAware ADS-B
Wed 06:44:29 PM 40.1320 115.6940 250° West 310 357 19,000  Level FlightAware ADS-B
Wed 06:47:00 PM 39.9124 115.4595 219° Southwest  Level Estimated
Wed 06:48:00 PM 39.8251 115.3668 219° Southwest  Level Estimated
Wed 06:49:00 PM 39.7376 115.2743 219° Southwest  Level Estimated
Wed 06:50:00 PM 39.6501 115.1820 219° Southwest  Level Estimated
Wed 06:51:00 PM 39.5625 115.0900 219° Southwest  Level Estimated
Wed 06:52:00 PM 39.4749 114.9982 219° Southwest  Level Estimated
Wed 06:53:00 PM 39.3871 114.9066 219° Southwest  Level Estimated
Wed 06:54:00 PM 39.2993 114.8152 219° Southwest  Level Estimated
Wed 06:55:00 PM 39.2114 114.7241 219° Southwest  Level Estimated
Wed 06:56:00 PM 39.1235 114.6332 219° Southwest  Level Estimated
Wed 06:57:00 PM 39.0355 114.5425 219° Southwest  Level Estimated
Wed 06:58:00 PM 38.9474 114.4521 219° Southwest  Level Estimated
Wed 06:59:00 PM 38.8592 114.3619 219° Southwest  Level Estimated
Wed 07:00:00 PM 38.7710 114.2719 219° Southwest  Level Estimated
Wed 07:01:00 PM 38.6827 114.1821 218° Southwest  Level Estimated
Wed 07:02:00 PM 38.5943 114.0926 218° Southwest  Level Estimated
Wed 07:03:00 PM 38.5059 114.0032 218° Southwest  Level Estimated
Wed 07:04:00 PM 38.4174 113.9141 218° Southwest  Level Estimated
Wed 07:05:00 PM 38.3288 113.8252 218° Southwest  Level Estimated
Wed 07:06:00 PM 38.2402 113.7366 218° Southwest  Level Estimated
Wed 07:07:00 PM 38.1515 113.6481 218° Southwest  Level Estimated
Wed 07:08:00 PM 38.0627 113.5599 218° Southwest  Level Estimated
Wed 07:09:00 PM 37.9739 113.4718 218° Southwest  Level Estimated
Wed 07:10:00 PM 37.8850 113.3840 218° Southwest  Level Estimated
Wed 07:11:00 PM 37.7961 113.2964 218° Southwest  Level Estimated
Wed 07:12:00 PM 37.7070 113.2090 218° Southwest  Level Estimated
Wed 07:13:00 PM 37.6179 113.1218 218° Southwest  Level Estimated
Wed 07:14:00 PM 37.5288 113.0349 218° Southwest  Level Estimated
Wed 07:15:00 PM 37.4395 112.9481 218° Southwest  Level Estimated
Wed 07:16:00 PM 37.3503 112.8615 218° Southwest  Level Estimated
Wed 07:17:00 PM 37.2609 112.7752 218° Southwest  Level Estimated
Wed 07:18:00 PM 37.1715 112.6890 218° Southwest  Level Estimated
Wed 07:19:00 PM 37.0820 112.6031 217° Southwest  Level Estimated
Wed 07:20:00 PM 36.9925 112.5173 217° Southwest  Level Estimated
Wed 07:21:00 PM 36.9029 112.4318 217° Southwest  Level Estimated
Wed 07:22:00 PM 36.8133 112.3465 217° Southwest  Level Estimated
Wed 07:23:00 PM 36.7235 112.2613 217° Southwest  Level Estimated
Wed 07:24:00 PM 36.6338 112.1764 217° Southwest  Level Estimated
Wed 07:25:00 PM 36.5439 112.0916 217° Southwest  Level Estimated
Wed 07:26:00 PM 36.4540 112.0071 217° Southwest  Level Estimated
Wed 07:27:00 PM 36.3641 111.9227 217° Southwest  Level Estimated
Wed 07:28:00 PM 36.2740 111.8386 217° Southwest  Level Estimated
Wed 07:29:00 PM 36.1840 111.7546 217° Southwest  Level Estimated
Wed 07:30:00 PM 36.0938 111.6709 217° Southwest  Level Estimated
Wed 07:31:00 PM 36.0037 111.5873 217° Southwest  Level Estimated
Wed 07:32:00 PM 35.9134 111.5039 217° Southwest  Level Estimated
Wed 07:33:00 PM 35.8231 111.4207 217° Southwest  Level Estimated
Wed 07:34:00 PM 35.7327 111.3377 217° Southwest  Level Estimated
Wed 07:35:00 PM 35.6423 111.2549 217° Southwest  Level Estimated
Wed 07:36:00 PM 35.5518 111.1722 217° Southwest  Level Estimated
Wed 07:37:00 PM 35.4613 111.0898 217° Southwest  Level Estimated
Wed 07:38:00 PM 35.3707 111.0075 217° Southwest  Level Estimated
Wed 07:39:00 PM 35.2801 110.9254 216° Southwest  Level Estimated
Wed 07:40:00 PM 35.1894 110.8435 216° Southwest  Level Estimated
Wed 07:41:00 PM 35.0986 110.7618 216° Southwest  Level Estimated
Wed 07:42:00 PM 35.0078 110.6803 216° Southwest  Level Estimated
Wed 07:43:00 PM 34.9170 110.5990 216° Southwest  Level Estimated
Wed 07:44:00 PM 34.8260 110.5178 216° Southwest  Level Estimated
Wed 07:45:00 PM 34.7351 110.4368 216° Southwest  Level Estimated
Wed 07:46:00 PM 34.6440 110.3560 216° Southwest  Level Estimated
Wed 07:47:00 PM 34.5530 110.2754 216° Southwest  Level Estimated
Wed 07:48:00 PM 34.4618 110.1949 216° Southwest  Level Estimated
Wed 07:49:00 PM 34.3706 110.1146 216° Southwest  Level Estimated
Wed 07:50:00 PM 34.2794 110.0345 216° Southwest  Level Estimated
Wed 07:51:00 PM 34.1881 109.9546 216° Southwest  Level Estimated
Wed 07:52:00 PM 34.0968 109.8748 216° Southwest  Level Estimated
Wed 07:53:00 PM 34.0054 109.7952 216° Southwest  Level Estimated
Wed 07:54:00 PM 33.9139 109.7158 216° Southwest  Level Estimated
Wed 07:55:00 PM 33.8224 109.6366 216° Southwest  Level Estimated
Wed 07:56:00 PM 33.7309 109.5575 216° Southwest  Level Estimated
Wed 07:57:00 PM 33.6393 109.4786 216° Southwest  Level Estimated
Wed 07:58:00 PM 33.5477 109.3998 216° Southwest  Level Estimated
Wed 07:59:00 PM 33.4560 109.3213 216° Southwest  Level Estimated
Wed 08:00:00 PM 33.3643 109.2428 216° Southwest  Level Estimated
Wed 08:01:00 PM 33.2725 109.1646 215° Southwest  Level Estimated
Wed 08:02:00 PM 33.1806 109.0865 215° Southwest  Level Estimated
Wed 08:03:00 PM 33.0887 109.0086 215° Southwest  Level Estimated
Wed 08:04:00 PM 32.9968 108.9309 215° Southwest  Level Estimated
Wed 08:05:00 PM 32.9048 108.8533 215° Southwest  Level Estimated
Wed 08:06:00 PM 32.8128 108.7758 215° Southwest  Level Estimated
Wed 08:07:00 PM 32.7207 108.6986 215° Southwest  Level Estimated
Wed 08:08:00 PM 32.6286 108.6215 215° Southwest  Level Estimated
Wed 08:09:00 PM 32.5364 108.5445 215° Southwest  Level Estimated
Wed 08:10:00 PM 32.4442 108.4677 215° Southwest  Level Estimated
Wed 08:11:00 PM 32.3519 108.3911 215° Southwest  Level Estimated
Wed 08:12:00 PM 32.2596 108.3146 215° Southwest  Level Estimated
Wed 08:13:00 PM 32.1672 108.2383 215° Southwest  Level Estimated
Wed 08:14:00 PM 32.0748 108.1621 215° Southwest  Level Estimated
Wed 08:15:00 PM 31.9823 108.0861 215° Southwest  Level Estimated
Wed 08:16:00 PM 31.8899 108.0102 215° Southwest  Level Estimated
Wed 08:17:00 PM 31.7973 107.9345 215° Southwest  Level Estimated
Wed 08:18:00 PM 31.7047 107.8590 215° Southwest  Level Estimated
Wed 08:19:00 PM 31.6121 107.7835 215° Southwest  Level Estimated
Wed 08:20:00 PM 31.5194 107.7083 215° Southwest  Level Estimated
Wed 08:21:00 PM 31.4267 107.6332 215° Southwest  Level Estimated
Wed 08:22:00 PM 31.3339 107.5582 215° Southwest  Level Estimated
Wed 08:23:00 PM 31.2411 107.4834 215° Southwest  Level Estimated
Wed 08:24:00 PM 31.1483 107.4087 215° Southwest  Level Estimated
Wed 08:25:00 PM 31.0554 107.3342 215° Southwest  Level Estimated
Wed 08:26:00 PM 30.9624 107.2598 214° Southwest  Level Estimated
Wed 08:27:00 PM 30.8695 107.1856 214° Southwest  Level Estimated
Wed 08:28:00 PM 30.7764 107.1115 214° Southwest  Level Estimated
Wed 08:29:00 PM 30.6834 107.0376 214° Southwest  Level Estimated
Wed 08:30:00 PM 30.5903 106.9638 214° Southwest  Level Estimated
Wed 08:31:00 PM 30.4971 106.8901 214° Southwest  Level Estimated
Wed 08:32:00 PM 30.4039 106.8166 214° Southwest  Level Estimated
Wed 08:33:00 PM 30.3107 106.7432 214° Southwest  Level Estimated
Wed 08:34:00 PM 30.2174 106.6700 214° Southwest  Level Estimated
Wed 08:35:00 PM 30.1241 106.5969 214° Southwest  Level Estimated
Wed 08:36:00 PM 30.0308 106.5239 214° Southwest  Level Estimated
Wed 08:37:00 PM 29.9374 106.4511 214° Southwest  Level Estimated
Wed 08:38:00 PM 29.8440 106.3784 214° Southwest  Level Estimated
Wed 08:39:00 PM 29.7505 106.3059 214° Southwest  Level Estimated
Wed 08:40:00 PM 29.6570 106.2335 214° Southwest  Level Estimated
Wed 08:41:00 PM 29.5634 106.1612 214° Southwest  Level Estimated
Wed 08:42:00 PM 29.4698 106.0890 214° Southwest  Level Estimated
Wed 08:43:00 PM 29.3762 106.0170 214° Southwest  Level Estimated
Wed 08:44:00 PM 29.2825 105.9451 214° Southwest  Level Estimated
Wed 08:45:00 PM 29.1888 105.8734 214° Southwest  Level Estimated
Wed 08:46:00 PM 29.0951 105.8018 214° Southwest  Level Estimated
Wed 08:47:00 PM 29.0013 105.7303 214° Southwest  Level Estimated
Wed 08:48:00 PM 28.9075 105.6589 214° Southwest  Level Estimated
Wed 08:49:00 PM 28.8136 105.5877 214° Southwest  Level Estimated
Wed 08:50:00 PM 28.7197 105.5166 214° Southwest  Level Estimated
Wed 08:51:00 PM 28.6258 105.4456 214° Southwest  Level Estimated
Wed 08:52:00 PM 28.5318 105.3748 214° Southwest  Level Estimated
Wed 08:53:00 PM 28.4378 105.3040 213° Southwest  Level Estimated
Wed 08:54:00 PM 28.3438 105.2334 213° Southwest  Level Estimated
Wed 08:55:00 PM 28.2497 105.1630 213° Southwest  Level Estimated
Wed 08:56:00 PM 28.1556 105.0926 213° Southwest  Level Estimated
Wed 08:57:00 PM 28.0614 105.0224 213° Southwest  Level Estimated
Wed 08:58:00 PM 27.9673 104.9523 213° Southwest  Level Estimated
Wed 08:59:00 PM 27.8730 104.8823 213° Southwest  Level Estimated
Wed 09:00:00 PM 27.7788 104.8125 213° Southwest  Level Estimated
Wed 09:01:00 PM 27.6845 104.7427 213° Southwest  Level Estimated
Wed 09:02:00 PM 27.5902 104.6731 213° Southwest  Level Estimated
Wed 09:03:00 PM 27.4958 104.6036 213° Southwest  Level Estimated
Wed 09:04:00 PM 27.4014 104.5342 213° Southwest  Level Estimated
Wed 09:05:00 PM 27.3070 104.4650 213° Southwest  Level Estimated
Wed 09:06:00 PM 27.2125 104.3958 213° Southwest  Level Estimated
Wed 09:07:00 PM 27.1180 104.3268 213° Southwest  Level Estimated
Wed 09:08:00 PM 27.0235 104.2579 213° Southwest  Level Estimated
Wed 09:09:00 PM 26.9289 104.1891 213° Southwest  Level Estimated
Wed 09:10:00 PM 26.8343 104.1204 213° Southwest  Level Estimated
Wed 09:11:00 PM 26.7397 104.0519 213° Southwest  Level Estimated
Wed 09:12:00 PM 26.6450 103.9834 213° Southwest  Level Estimated
Wed 09:13:00 PM 26.5503 103.9151 213° Southwest  Level Estimated
Wed 09:14:00 PM 26.4556 103.8469 213° Southwest  Level Estimated
Wed 09:15:00 PM 26.3608 103.7788 213° Southwest  Level Estimated
Wed 09:16:00 PM 26.2661 103.7108 213° Southwest  Level Estimated
Wed 09:17:00 PM 26.1712 103.6429 213° Southwest  Level Estimated
Wed 09:18:00 PM 26.0764 103.5751 213° Southwest  Level Estimated
Wed 09:19:00 PM 25.9815 103.5074 213° Southwest  Level Estimated
Wed 09:20:00 PM 25.8866 103.4399 213° Southwest  Level Estimated
Wed 09:21:00 PM 25.7916 103.3724 213° Southwest  Level Estimated
Wed 09:22:00 PM 25.6966 103.3051 213° Southwest  Level Estimated
Wed 09:23:00 PM 25.6016 103.2379 213° Southwest  Level Estimated
Wed 09:24:00 PM 25.5066 103.1707 213° Southwest  Level Estimated
Wed 09:25:00 PM 25.4115 103.1037 212° Southwest  Level Estimated
Wed 09:26:00 PM 25.3164 103.0368 212° Southwest  Level Estimated
Wed 09:27:00 PM 25.2213 102.9700 212° Southwest  Level Estimated
Wed 09:28:00 PM 25.1261 102.9033 212° Southwest  Level Estimated
Wed 09:29:00 PM 25.0309 102.8367 212° Southwest  Level Estimated
Wed 09:30:00 PM 24.9357 102.7702 212° Southwest  Level Estimated
Wed 09:31:00 PM 24.8404 102.7038 212° Southwest  Level Estimated
Wed 09:32:00 PM 24.7451 102.6375 212° Southwest  Level Estimated
Wed 09:33:00 PM 24.6498 102.5713 212° Southwest  Level Estimated
Wed 09:34:00 PM 24.5545 102.5052 212° Southwest  Level Estimated
Wed 09:35:00 PM 24.4591 102.4392 212° Southwest  Level Estimated
Wed 09:36:00 PM 24.3637 102.3734 212° Southwest  Level Estimated
Wed 09:37:00 PM 24.2683 102.3076 212° Southwest  Level Estimated
Wed 09:38:00 PM 24.1728 102.2419 212° Southwest  Level Estimated
Wed 09:39:00 PM 24.0774 102.1763 212° Southwest  Level Estimated
Wed 09:40:00 PM 23.9818 102.1108 212° Southwest  Level Estimated
Wed 09:41:00 PM 23.8863 102.0454 212° Southwest  Level Estimated
Wed 09:42:00 PM 23.7907 101.9801 212° Southwest  Level Estimated
Wed 09:43:00 PM 23.6952 101.9149 212° Southwest  Level Estimated
Wed 09:44:00 PM 23.5995 101.8498 212° Southwest  Level Estimated
Wed 09:45:00 PM 23.5039 101.7848 212° Southwest  Level Estimated
Wed 09:46:00 PM 23.4082 101.7198 212° Southwest  Level Estimated
Wed 09:47:00 PM 23.3125 101.6550 212° Southwest  Level Estimated
Wed 09:48:00 PM 23.2168 101.5903 212° Southwest  Level Estimated
Wed 09:49:00 PM 23.1210 101.5256 212° Southwest  Level Estimated
Wed 09:50:00 PM 23.0252 101.4611 212° Southwest  Level Estimated
Wed 09:51:00 PM 22.9294 101.3966 212° Southwest  Level Estimated
Wed 09:52:00 PM 22.8336 101.3323 212° Southwest  Level Estimated
Wed 09:53:00 PM 22.7377 101.2680 212° Southwest  Level Estimated
Wed 09:54:00 PM 22.6418 101.2038 212° Southwest  Level Estimated
Wed 09:55:00 PM 22.5459 101.1397 212° Southwest  Level Estimated
Wed 09:56:00 PM 22.4500 101.0757 212° Southwest  Level Estimated
Wed 09:57:00 PM 22.3540 101.0118 212° Southwest  Level Estimated
Wed 09:58:00 PM 22.2580 100.9479 212° Southwest  Level Estimated
Wed 09:59:00 PM 22.1620 100.8842 212° Southwest  Level Estimated
Wed 10:00:00 PM 22.0660 100.8205 212° Southwest  Level Estimated
Wed 10:01:00 PM 21.9739 100.7596 212° Southwest  Level Estimated
Wed 10:02:00 PM 21.9739 100.7596 13° North  Level Estimated
Wed 10:03:00 PM 21.9739 100.7596 13° North  Level Estimated
Wed 10:04:00 PM 21.9739 100.7596 13° North  Level Estimated
Wed 10:05:00 PM 21.9739 100.7596 13° North  Level Estimated
Wed 10:06:00 PM 21.9739 100.7596 13° North  Level Estimated
Wed 10:07:00 PM 21.9739 100.7596 13° North  Level Estimated
Wed 10:08:00 PM 21.9739 100.7596 13° North  Level Estimated
Wed 10:09:00 PM 21.9739 100.7596 13° North  Level Estimated

Login

Don't have an account? Register now (free) for customized features, flight alerts, and more!